sensor_id;sensor_type;location;lat;lon;timestamp;pressure;altitude;pressure_sealevel;temperature;humidity
13476;BME280;6810;63.824;20.288;2023-08-21T00:00:31;101878.72;;;15.19;75.61
13476;BME280;6810;63.824;20.288;2023-08-21T00:03:18;101810.28;;;14.81;75.36
13476;BME280;6810;63.824;20.288;2023-08-21T00:06:05;101868.44;;;15.12;75.41
13476;BME280;6810;63.824;20.288;2023-08-21T00:08:52;101875.72;;;15.10;75.97
13476;BME280;6810;63.824;20.288;2023-08-21T00:11:39;101873.19;;;15.07;75.37
13476;BME280;6810;63.824;20.288;2023-08-21T00:14:26;101864.56;;;15.02;75.84
13476;BME280;6810;63.824;20.288;2023-08-21T00:17:13;101858.06;;;14.90;75.56
13476;BME280;6810;63.824;20.288;2023-08-21T00:20:01;101858.94;;;14.91;75.83
13476;BME280;6810;63.824;20.288;2023-08-21T00:22:48;101868.53;;;14.95;75.75
13476;BME280;6810;63.824;20.288;2023-08-21T00:25:35;101863.34;;;14.92;75.95
13476;BME280;6810;63.824;20.288;2023-08-21T00:28:22;101853.31;;;14.80;76.08
13476;BME280;6810;63.824;20.288;2023-08-21T00:31:09;101864.59;;;14.86;75.87
13476;BME280;6810;63.824;20.288;2023-08-21T00:33:56;101861.19;;;14.83;76.17
13476;BME280;6810;63.824;20.288;2023-08-21T00:36:44;101860.44;;;14.81;76.13
13476;BME280;6810;63.824;20.288;2023-08-21T00:39:31;101856.19;;;14.77;76.34
13476;BME280;6810;63.824;20.288;2023-08-21T00:42:18;101854.47;;;14.76;76.01
13476;BME280;6810;63.824;20.288;2023-08-21T00:45:06;101854.66;;;14.73;75.71
13476;BME280;6810;63.824;20.288;2023-08-21T00:47:53;101847.69;;;14.69;75.99
13476;BME280;6810;63.824;20.288;2023-08-21T00:50:40;101841.84;;;14.62;75.60
13476;BME280;6810;63.824;20.288;2023-08-21T00:53:28;101851.63;;;14.63;76.35
13476;BME280;6810;63.824;20.288;2023-08-21T00:56:15;101851.78;;;14.60;76.14
13476;BME280;6810;63.824;20.288;2023-08-21T00:59:02;101846.59;;;14.57;76.02
13476;BME280;6810;63.824;20.288;2023-08-21T01:01:49;101804.97;;;14.35;75.84
13476;BME280;6810;63.824;20.288;2023-08-21T01:04:36;101826.78;;;14.44;76.04
13476;BME280;6810;63.824;20.288;2023-08-21T01:07:23;101844.25;;;14.51;76.36
13476;BME280;6810;63.824;20.288;2023-08-21T01:10:25;101834.56;;;14.49;76.51
13476;BME280;6810;63.824;20.288;2023-08-21T01:16:10;101787.78;;;14.22;75.89
13476;BME280;6810;63.824;20.288;2023-08-21T01:18:58;101815.53;;;14.38;76.62
13476;BME280;6810;63.824;20.288;2023-08-21T01:21:47;101830.66;;;14.39;76.34
13476;BME280;6810;63.824;20.288;2023-08-21T01:24:34;101819.41;;;14.32;76.48
13476;BME280;6810;63.824;20.288;2023-08-21T01:27:21;101811.53;;;14.29;76.46
13476;BME280;6810;63.824;20.288;2023-08-21T01:30:08;101820.28;;;14.33;76.25
13476;BME280;6810;63.824;20.288;2023-08-21T01:33:01;101816.81;;;14.31;76.47
13476;BME280;6810;63.824;20.288;2023-08-21T01:35:52;101812.56;;;14.27;76.35
13476;BME280;6810;63.824;20.288;2023-08-21T01:38:40;101791.06;;;14.11;76.53
13476;BME280;6810;63.824;20.288;2023-08-21T01:41:27;101818.03;;;14.25;76.35
13476;BME280;6810;63.824;20.288;2023-08-21T01:44:14;101810.06;;;14.24;76.54
13476;BME280;6810;63.824;20.288;2023-08-21T01:47:02;101815.56;;;14.21;76.63
13476;BME280;6810;63.824;20.288;2023-08-21T01:49:49;101783.47;;;14.04;76.94
13476;BME280;6810;63.824;20.288;2023-08-21T01:52:38;101808.56;;;14.18;76.63
13476;BME280;6810;63.824;20.288;2023-08-21T01:55:26;101798.94;;;14.14;76.98
13476;BME280;6810;63.824;20.288;2023-08-21T01:58:16;101782.25;;;14.09;76.95
13476;BME280;6810;63.824;20.288;2023-08-21T02:01:03;101783.22;;;14.08;77.28
13476;BME280;6810;63.824;20.288;2023-08-21T02:03:50;101767.81;;;13.96;77.02
13476;BME280;6810;63.824;20.288;2023-08-21T02:06:37;101789.28;;;14.12;77.40
13476;BME280;6810;63.824;20.288;2023-08-21T02:09:24;101793.75;;;14.11;77.61
13476;BME280;6810;63.824;20.288;2023-08-21T02:12:11;101758.31;;;13.90;76.96
13476;BME280;6810;63.824;20.288;2023-08-21T02:14:58;101783.22;;;14.08;77.58
13476;BME280;6810;63.824;20.288;2023-08-21T02:17:45;101784.09;;;14.09;77.56
13476;BME280;6810;63.824;20.288;2023-08-21T02:20:32;101745.06;;;13.87;77.38
13476;BME280;6810;63.824;20.288;2023-08-21T02:23:20;101778.72;;;14.09;77.64
13476;BME280;6810;63.824;20.288;2023-08-21T02:26:07;101765.31;;;14.09;77.41
13476;BME280;6810;63.824;20.288;2023-08-21T02:28:54;101755.03;;;14.01;77.78
13476;BME280;6810;63.824;20.288;2023-08-21T02:31:41;101755.03;;;14.01;77.66
13476;BME280;6810;63.824;20.288;2023-08-21T02:34:28;101757.28;;;14.09;77.70
13476;BME280;6810;63.824;20.288;2023-08-21T02:37:15;101749.31;;;14.07;77.94
13476;BME280;6810;63.824;20.288;2023-08-21T02:40:03;101744.13;;;14.04;77.93
13476;BME280;6810;63.824;20.288;2023-08-21T02:42:50;101733.47;;;14.03;78.05
13476;BME280;6810;63.824;20.288;2023-08-21T02:45:37;101736.00;;;14.06;77.69
13476;BME280;6810;63.824;20.288;2023-08-21T02:48:24;101727.88;;;14.07;78.19
13476;BME280;6810;63.824;20.288;2023-08-21T02:51:11;101713.13;;;13.98;78.32
13476;BME280;6810;63.824;20.288;2023-08-21T02:53:58;101714.72;;;14.03;78.55
13476;BME280;6810;63.824;20.288;2023-08-21T02:56:46;101718.16;;;14.05;78.21
13476;BME280;6810;63.824;20.288;2023-08-21T02:59:33;101728.53;;;14.11;78.29
13476;BME280;6810;63.824;20.288;2023-08-21T03:02:20;101725.78;;;14.12;78.28
13476;BME280;6810;63.824;20.288;2023-08-21T03:05:09;101730.09;;;14.15;78.96
13476;BME280;6810;63.824;20.288;2023-08-21T03:07:56;101690.94;;;13.97;78.49
13476;BME280;6810;63.824;20.288;2023-08-21T03:10:43;101724.56;;;14.18;79.35
13476;BME280;6810;63.824;20.288;2023-08-21T03:13:30;101716.63;;;14.16;79.15
13476;BME280;6810;63.824;20.288;2023-08-21T03:16:17;101709.75;;;14.11;79.33
13476;BME280;6810;63.824;20.288;2023-08-21T03:19:04;101702.41;;;14.14;79.69
13476;BME280;6810;63.824;20.288;2023-08-21T03:21:51;101710.97;;;14.21;79.44
13476;BME280;6810;63.824;20.288;2023-08-21T03:24:42;101714.13;;;14.29;79.54
13476;BME280;6810;63.824;20.288;2023-08-21T03:27:29;101706.25;;;14.26;79.39
13476;BME280;6810;63.824;20.288;2023-08-21T03:30:16;101708.59;;;14.32;79.76
13476;BME280;6810;63.824;20.288;2023-08-21T03:33:04;101697.94;;;14.30;79.60
13476;BME280;6810;63.824;20.288;2023-08-21T03:35:53;101692.69;;;14.29;79.38
13476;BME280;6810;63.824;20.288;2023-08-21T03:38:40;101701.03;;;14.38;79.27
13476;BME280;6810;63.824;20.288;2023-08-21T03:41:30;101699.41;;;14.36;79.28
13476;BME280;6810;63.824;20.288;2023-08-21T03:44:17;101705.38;;;14.41;79.60
13476;BME280;6810;63.824;20.288;2023-08-21T03:47:04;101695.38;;;14.43;79.63
13476;BME280;6810;63.824;20.288;2023-08-21T03:50:00;101696.16;;;14.45;79.42
13476;BME280;6810;63.824;20.288;2023-08-21T03:52:48;101698.00;;;14.44;79.75
13476;BME280;6810;63.824;20.288;2023-08-21T03:55:35;101689.97;;;14.44;79.67
13476;BME280;6810;63.824;20.288;2023-08-21T03:58:22;101692.47;;;14.47;79.47
13476;BME280;6810;63.824;20.288;2023-08-21T04:01:09;101679.06;;;14.47;79.63
13476;BME280;6810;63.824;20.288;2023-08-21T04:03:56;101676.56;;;14.44;79.98
13476;BME280;6810;63.824;20.288;2023-08-21T04:06:43;101682.66;;;14.46;79.74
13476;BME280;6810;63.824;20.288;2023-08-21T04:09:30;101677.13;;;14.49;79.93
13476;BME280;6810;63.824;20.288;2023-08-21T04:12:17;101682.41;;;14.51;79.88
13476;BME280;6810;63.824;20.288;2023-08-21T04:15:05;101661.91;;;14.50;79.75
13476;BME280;6810;63.824;20.288;2023-08-21T04:17:52;101671.56;;;14.52;80.09
13476;BME280;6810;63.824;20.288;2023-08-21T04:20:53;101668.72;;;14.55;80.46
13476;BME280;6810;63.824;20.288;2023-08-21T04:23:40;101666.81;;;14.57;80.47
13476;BME280;6810;63.824;20.288;2023-08-21T04:26:28;101661.34;;;14.59;80.12
13476;BME280;6810;63.824;20.288;2023-08-21T04:29:15;101637.84;;;14.48;80.02
13476;BME280;6810;63.824;20.288;2023-08-21T04:32:02;101649.66;;;14.60;80.56
13476;BME280;6810;63.824;20.288;2023-08-21T04:34:49;101647.16;;;14.57;80.42
13476;BME280;6810;63.824;20.288;2023-08-21T04:37:39;101629.69;;;14.50;80.33
13476;BME280;6810;63.824;20.288;2023-08-21T04:40:29;101644.00;;;14.64;80.26
13476;BME280;6810;63.824;20.288;2023-08-21T04:43:17;101640.38;;;14.65;80.32
13476;BME280;6810;63.824;20.288;2023-08-21T04:46:06;101640.19;;;14.68;80.47
13476;BME280;6810;63.824;20.288;2023-08-21T04:48:54;101634.16;;;14.65;80.47
13476;BME280;6810;63.824;20.288;2023-08-21T04:51:41;101648.91;;;14.72;80.97
13476;BME280;6810;63.824;20.288;2023-08-21T04:54:29;101637.69;;;14.65;80.97
13476;BME280;6810;63.824;20.288;2023-08-21T04:57:16;101647.00;;;14.74;80.98
13476;BME280;6810;63.824;20.288;2023-08-21T05:00:07;101616.69;;;14.58;80.90
13476;BME280;6810;63.824;20.288;2023-08-21T05:02:54;101648.66;;;14.76;80.80
13476;BME280;6810;63.824;20.288;2023-08-21T05:05:52;101640.50;;;14.78;80.57
13476;BME280;6810;63.824;20.288;2023-08-21T05:08:39;101643.09;;;14.79;80.73
13476;BME280;6810;63.824;20.288;2023-08-21T05:11:26;101627.25;;;14.75;80.97
13476;BME280;6810;63.824;20.288;2023-08-21T05:14:14;101631.69;;;14.76;81.28
13476;BME280;6810;63.824;20.288;2023-08-21T05:17:03;101641.06;;;14.83;80.81
13476;BME280;6810;63.824;20.288;2023-08-21T05:19:50;101646.34;;;14.84;80.87
13476;BME280;6810;63.824;20.288;2023-08-21T05:22:37;101636.47;;;14.85;81.27
13476;BME280;6810;63.824;20.288;2023-08-21T05:25:24;101630.16;;;14.86;80.94
13476;BME280;6810;63.824;20.288;2023-08-21T05:28:11;101644.25;;;14.89;80.84
13476;BME280;6810;63.824;20.288;2023-08-21T05:30:59;101634.56;;;14.87;80.98
13476;BME280;6810;63.824;20.288;2023-08-21T05:33:51;101632.44;;;14.92;81.22
13476;BME280;6810;63.824;20.288;2023-08-21T05:36:38;101616.63;;;14.87;81.32
13476;BME280;6810;63.824;20.288;2023-08-21T05:39:26;101628.63;;;14.96;81.19
13476;BME280;6810;63.824;20.288;2023-08-21T05:42:13;101629.28;;;14.99;81.64
13476;BME280;6810;63.824;20.288;2023-08-21T05:45:00;101625.66;;;15.00;81.46
13476;BME280;6810;63.824;20.288;2023-08-21T05:47:48;101615.97;;;14.98;81.25
13476;BME280;6810;63.824;20.288;2023-08-21T05:50:36;101612.53;;;14.96;81.48
13476;BME280;6810;63.824;20.288;2023-08-21T05:53:23;101617.13;;;15.08;81.66
13476;BME280;6810;63.824;20.288;2023-08-21T05:56:10;101632.19;;;15.10;81.55
13476;BME280;6810;63.824;20.288;2023-08-21T05:58:57;101629.41;;;15.12;81.45
13476;BME280;6810;63.824;20.288;2023-08-21T06:01:44;101631.03;;;15.14;81.66
13476;BME280;6810;63.824;20.288;2023-08-21T06:04:31;101627.28;;;15.17;81.76
13476;BME280;6810;63.824;20.288;2023-08-21T06:07:19;101604.09;;;15.02;81.77
13476;BME280;6810;63.824;20.288;2023-08-21T06:10:07;101619.13;;;15.18;81.84
13476;BME280;6810;63.824;20.288;2023-08-21T06:12:54;101599.84;;;15.12;82.29
13476;BME280;6810;63.824;20.288;2023-08-21T06:15:43;101622.22;;;15.26;82.06
13476;BME280;6810;63.824;20.288;2023-08-21T06:18:31;101621.16;;;15.29;82.11
13476;BME280;6810;63.824;20.288;2023-08-21T06:21:19;101589.22;;;15.10;81.90
13476;BME280;6810;63.824;20.288;2023-08-21T06:24:06;101627.19;;;15.32;81.74
13476;BME280;6810;63.824;20.288;2023-08-21T06:26:58;101636.09;;;15.33;81.63
13476;BME280;6810;63.824;20.288;2023-08-21T06:29:45;101632.47;;;15.34;81.67
13476;BME280;6810;63.824;20.288;2023-08-21T06:32:32;101627.41;;;15.29;81.85
13476;BME280;6810;63.824;20.288;2023-08-21T06:35:19;101637.59;;;15.38;81.89
13476;BME280;6810;63.824;20.288;2023-08-21T06:38:06;101634.09;;;15.36;82.17
13476;BME280;6810;63.824;20.288;2023-08-21T06:40:53;101638.25;;;15.42;81.94
13476;BME280;6810;63.824;20.288;2023-08-21T06:43:42;101626.75;;;15.40;82.03
13476;BME280;6810;63.824;20.288;2023-08-21T06:46:29;101634.41;;;15.46;82.02
13476;BME280;6810;63.824;20.288;2023-08-21T06:49:17;101609.22;;;15.33;81.74
13476;BME280;6810;63.824;20.288;2023-08-21T06:52:04;101630.00;;;15.45;82.24
13476;BME280;6810;63.824;20.288;2023-08-21T06:54:51;101630.66;;;15.48;82.19
13476;BME280;6810;63.824;20.288;2023-08-21T06:57:38;101612.03;;;15.45;82.40
13476;BME280;6810;63.824;20.288;2023-08-21T07:00:25;101612.13;;;15.44;82.79
13476;BME280;6810;63.824;20.288;2023-08-21T07:03:12;101588.63;;;15.33;82.61
13476;BME280;6810;63.824;20.288;2023-08-21T07:05:59;101584.69;;;15.39;82.75
13476;BME280;6810;63.824;20.288;2023-08-21T07:08:46;101612.91;;;15.60;82.35
13476;BME280;6810;63.824;20.288;2023-08-21T07:11:33;101611.63;;;15.66;82.46
13476;BME280;6810;63.824;20.288;2023-08-21T07:14:21;101616.69;;;15.70;82.63
13476;BME280;6810;63.824;20.288;2023-08-21T07:17:08;101607.59;;;15.73;82.47
13476;BME280;6810;63.824;20.288;2023-08-21T07:19:55;101603.16;;;15.72;83.20
13476;BME280;6810;63.824;20.288;2023-08-21T07:22:42;101611.59;;;15.80;82.97
13476;BME280;6810;63.824;20.288;2023-08-21T07:25:28;101605.13;;;15.82;83.25
13476;BME280;6810;63.824;20.288;2023-08-21T07:28:15;101595.34;;;15.81;82.75
13476;BME280;6810;63.824;20.288;2023-08-21T07:31:02;101602.03;;;15.88;83.37
13476;BME280;6810;63.824;20.288;2023-08-21T07:33:50;101601.72;;;15.93;82.48
13476;BME280;6810;63.824;20.288;2023-08-21T07:36:37;101603.38;;;15.95;82.84
13476;BME280;6810;63.824;20.288;2023-08-21T07:39:24;101594.34;;;15.96;82.71
13476;BME280;6810;63.824;20.288;2023-08-21T07:42:11;101560.41;;;15.81;82.95
13476;BME280;6810;63.824;20.288;2023-08-21T07:44:59;101592.00;;;16.04;83.46
13476;BME280;6810;63.824;20.288;2023-08-21T07:47:45;101587.56;;;16.03;83.00
13476;BME280;6810;63.824;20.288;2023-08-21T07:50:40;101584.59;;;16.08;82.88
13476;BME280;6810;63.824;20.288;2023-08-21T07:53:27;101585.13;;;16.13;82.06
13476;BME280;6810;63.824;20.288;2023-08-21T07:56:14;101572.09;;;16.07;81.35
13476;BME280;6810;63.824;20.288;2023-08-21T07:59:02;101579.75;;;16.13;81.55
13476;BME280;6810;63.824;20.288;2023-08-21T08:01:53;101584.72;;;16.19;80.94
13476;BME280;6810;63.824;20.288;2023-08-21T08:04:40;101538.38;;;15.89;80.78
13476;BME280;6810;63.824;20.288;2023-08-21T08:07:27;101573.13;;;16.18;80.51
13476;BME280;6810;63.824;20.288;2023-08-21T08:10:14;101569.03;;;16.25;80.72
13476;BME280;6810;63.824;20.288;2023-08-21T08:13:01;101578.59;;;16.29;80.37
13476;BME280;6810;63.824;20.288;2023-08-21T08:15:48;101578.50;;;16.31;80.07
13476;BME280;6810;63.824;20.288;2023-08-21T08:18:35;101573.88;;;16.33;80.40
13476;BME280;6810;63.824;20.288;2023-08-21T08:21:22;101571.97;;;16.35;80.29
13476;BME280;6810;63.824;20.288;2023-08-21T08:24:09;101571.63;;;16.39;80.43
13476;BME280;6810;63.824;20.288;2023-08-21T08:26:56;101563.56;;;16.39;79.86
13476;BME280;6810;63.824;20.288;2023-08-21T08:29:43;101571.25;;;16.45;80.26
13476;BME280;6810;63.824;20.288;2023-08-21T08:32:30;101566.53;;;16.49;80.13
13476;BME280;6810;63.824;20.288;2023-08-21T08:35:18;101555.28;;;16.42;79.33
13476;BME280;6810;63.824;20.288;2023-08-21T08:38:05;101561.16;;;16.49;79.63
13476;BME280;6810;63.824;20.288;2023-08-21T08:40:53;101561.03;;;16.50;80.06
13476;BME280;6810;63.824;20.288;2023-08-21T08:43:41;101563.50;;;16.53;80.11
13476;BME280;6810;63.824;20.288;2023-08-21T08:46:29;101555.44;;;16.53;80.09
13476;BME280;6810;63.824;20.288;2023-08-21T08:49:16;101557.03;;;16.56;80.21
13476;BME280;6810;63.824;20.288;2023-08-21T08:52:04;101551.44;;;16.59;79.49
13476;BME280;6810;63.824;20.288;2023-08-21T08:54:51;101564.16;;;16.69;79.74
13476;BME280;6810;63.824;20.288;2023-08-21T08:57:39;101552.31;;;16.72;79.54
13476;BME280;6810;63.824;20.288;2023-08-21T09:00:26;101551.13;;;16.76;79.70
13476;BME280;6810;63.824;20.288;2023-08-21T09:02:54;101546.41;;;16.79;79.97
13476;BME280;6810;63.824;20.288;2023-08-21T09:05:22;101546.91;;;16.84;79.90
13476;BME280;6810;63.824;20.288;2023-08-21T09:08:11;101535.91;;;16.87;79.78
13476;BME280;6810;63.824;20.288;2023-08-21T09:11:01;101541.84;;;16.92;80.51
13476;BME280;6810;63.824;20.288;2023-08-21T09:13:50;101495.56;;;16.75;80.27
13476;BME280;6810;63.824;20.288;2023-08-21T09:16:37;101542.94;;;17.02;79.93
13476;BME280;6810;63.824;20.288;2023-08-21T09:19:24;101526.97;;;16.99;80.47
13476;BME280;6810;63.824;20.288;2023-08-21T09:22:16;101509.53;;;16.92;80.56
13476;BME280;6810;63.824;20.288;2023-08-21T09:25:05;101531.50;;;17.11;80.67
13476;BME280;6810;63.824;20.288;2023-08-21T09:27:56;101508.84;;;17.01;81.56
13476;BME280;6810;63.824;20.288;2023-08-21T09:30:51;101525.44;;;17.20;81.72
13476;BME280;6810;63.824;20.288;2023-08-21T09:33:38;101523.34;;;17.24;81.78
13476;BME280;6810;63.824;20.288;2023-08-21T09:36:25;101520.44;;;17.27;81.48
13476;BME280;6810;63.824;20.288;2023-08-21T09:39:15;101516.03;;;17.26;82.30
13476;BME280;6810;63.824;20.288;2023-08-21T09:42:08;101512.34;;;17.27;81.87
13476;BME280;6810;63.824;20.288;2023-08-21T09:44:56;101514.91;;;17.28;82.86
13476;BME280;6810;63.824;20.288;2023-08-21T09:47:43;101514.81;;;17.30;83.29
13476;BME280;6810;63.824;20.288;2023-08-21T12:04:16;101415.56;;;17.71;87.02
13476;BME280;6810;63.824;20.288;2023-08-21T12:06:45;101428.06;;;17.72;87.29
13476;BME280;6810;63.824;20.288;2023-08-21T12:09:12;101385.81;;;17.49;88.09
13476;BME280;6810;63.824;20.288;2023-08-21T12:11:39;101426.59;;;17.68;88.11
13476;BME280;6810;63.824;20.288;2023-08-21T12:14:06;101422.41;;;17.64;88.42
13476;BME280;6810;63.824;20.288;2023-08-21T12:16:33;101424.97;;;17.66;88.32
13476;BME280;6810;63.824;20.288;2023-08-21T12:19:00;101416.25;;;17.62;88.59
13476;BME280;6810;63.824;20.288;2023-08-21T12:21:30;101419.94;;;17.61;88.77
13476;BME280;6810;63.824;20.288;2023-08-21T12:23:57;101408.28;;;17.61;88.89
13476;BME280;6810;63.824;20.288;2023-08-21T12:26:24;101409.03;;;17.63;89.42
13476;BME280;6810;63.824;20.288;2023-08-21T12:29:02;101415.41;;;17.62;89.57
13476;BME280;6810;63.824;20.288;2023-08-21T12:31:29;101395.03;;;17.58;89.78
13476;BME280;6810;63.824;20.288;2023-08-21T12:33:57;101408.03;;;17.64;90.05
13476;BME280;6810;63.824;20.288;2023-08-21T12:36:24;101405.47;;;17.62;89.92
13476;BME280;6810;63.824;20.288;2023-08-21T12:38:52;101393.56;;;17.54;90.08
13476;BME280;6810;63.824;20.288;2023-08-21T12:41:19;101405.56;;;17.61;89.62
13476;BME280;6810;63.824;20.288;2023-08-21T12:43:46;101404.63;;;17.62;90.30
13476;BME280;6810;63.824;20.288;2023-08-21T12:46:14;101398.47;;;17.60;90.20
13476;BME280;6810;63.824;20.288;2023-08-21T12:48:41;101394.06;;;17.59;90.18
13476;BME280;6810;63.824;20.288;2023-08-21T12:51:08;101375.03;;;17.49;90.54
13476;BME280;6810;63.824;20.288;2023-08-21T12:53:35;101398.00;;;17.66;90.68
13476;BME280;6810;63.824;20.288;2023-08-21T12:56:03;101380.59;;;17.59;91.10
13476;BME280;6810;63.824;20.288;2023-08-21T12:58:30;101393.47;;;17.66;91.27
13476;BME280;6810;63.824;20.288;2023-08-21T13:00:58;101395.81;;;17.71;90.90
13476;BME280;6810;63.824;20.288;2023-08-21T13:03:25;101393.13;;;17.71;90.86
13476;BME280;6810;63.824;20.288;2023-08-21T13:05:53;101365.25;;;17.59;90.81
13476;BME280;6810;63.824;20.288;2023-08-21T13:08:20;101375.34;;;17.68;91.13
13476;BME280;6810;63.824;20.288;2023-08-21T13:10:48;101381.75;;;17.78;91.75
13476;BME280;6810;63.824;20.288;2023-08-21T13:13:15;101380.75;;;17.79;91.40
13476;BME280;6810;63.824;20.288;2023-08-21T13:15:42;101382.50;;;17.80;91.68
13476;BME280;6810;63.824;20.288;2023-08-21T13:18:11;101379.78;;;17.80;91.90
13476;BME280;6810;63.824;20.288;2023-08-21T13:20:42;101364.22;;;17.84;92.03
13476;BME280;6810;63.824;20.288;2023-08-21T13:23:10;101338.03;;;17.62;91.57
13476;BME280;6810;63.824;20.288;2023-08-21T13:25:38;101280.63;;;17.38;91.92
13476;BME280;6810;63.824;20.288;2023-08-21T13:28:05;101361.28;;;17.87;91.93
13476;BME280;6810;63.824;20.288;2023-08-21T13:30:35;101336.88;;;17.77;92.32
13476;BME280;6810;63.824;20.288;2023-08-21T13:33:02;101365.09;;;17.95;92.20
13476;BME280;6810;63.824;20.288;2023-08-21T13:35:31;101267.03;;;17.40;91.88
13476;BME280;6810;63.824;20.288;2023-08-21T13:37:59;101360.34;;;17.99;92.39
13476;BME280;6810;63.824;20.288;2023-08-21T13:40:26;101331.25;;;17.80;92.84
13476;BME280;6810;63.824;20.288;2023-08-21T13:42:53;101331.25;;;17.91;92.67
13476;BME280;6810;63.824;20.288;2023-08-21T13:45:22;101336.19;;;17.97;92.63
13476;BME280;6810;63.824;20.288;2023-08-21T13:47:49;101306.38;;;17.88;92.70
13476;BME280;6810;63.824;20.288;2023-08-21T13:50:18;101299.72;;;17.92;92.64
13476;BME280;6810;63.824;20.288;2023-08-21T13:52:49;101345.72;;;18.23;92.83
13476;BME280;6810;63.824;20.288;2023-08-21T13:55:19;101264.06;;;17.77;92.52
13476;BME280;6810;63.824;20.288;2023-08-21T13:57:47;101253.16;;;17.79;92.54
13476;BME280;6810;63.824;20.288;2023-08-21T14:00:15;101316.66;;;18.16;92.51
13476;BME280;6810;63.824;20.288;2023-08-21T14:02:45;101329.53;;;18.23;92.42
13476;BME280;6810;63.824;20.288;2023-08-21T14:05:12;101307.47;;;18.18;92.53
13476;BME280;6810;63.824;20.288;2023-08-21T14:07:39;101292.88;;;18.10;92.28
13476;BME280;6810;63.824;20.288;2023-08-21T14:10:09;101313.13;;;18.15;92.28
13476;BME280;6810;63.824;20.288;2023-08-21T14:12:37;101291.66;;;18.14;92.04
13476;BME280;6810;63.824;20.288;2023-08-21T14:15:08;101313.72;;;18.30;91.86
13476;BME280;6810;63.824;20.288;2023-08-21T14:17:36;101330.56;;;18.44;91.18
13476;BME280;6810;63.824;20.288;2023-08-21T14:20:04;101319.38;;;18.38;91.18
13476;BME280;6810;63.824;20.288;2023-08-21T14:22:33;101339.50;;;18.45;91.07
13476;BME280;6810;63.824;20.288;2023-08-21T14:25:01;101326.84;;;18.34;91.18
13476;BME280;6810;63.824;20.288;2023-08-21T14:27:28;101320.72;;;18.43;90.95
13476;BME280;6810;63.824;20.288;2023-08-21T14:29:55;101314.94;;;18.37;90.44
13476;BME280;6810;63.824;20.288;2023-08-21T14:32:22;101311.91;;;18.41;90.75
13476;BME280;6810;63.824;20.288;2023-08-21T14:34:50;101298.75;;;18.37;90.99
13476;BME280;6810;63.824;20.288;2023-08-21T14:37:17;101313.75;;;18.41;90.74
13476;BME280;6810;63.824;20.288;2023-08-21T14:39:44;101286.72;;;18.30;90.71
13476;BME280;6810;63.824;20.288;2023-08-21T14:42:11;101318.38;;;18.50;91.10
13476;BME280;6810;63.824;20.288;2023-08-21T14:44:39;101295.69;;;18.30;90.36
13476;BME280;6810;63.824;20.288;2023-08-21T14:47:06;101315.94;;;18.47;90.22
13476;BME280;6810;63.824;20.288;2023-08-21T14:49:34;101303.56;;;18.44;90.38
13476;BME280;6810;63.824;20.288;2023-08-21T14:52:02;101269.56;;;18.20;90.93
13476;BME280;6810;63.824;20.288;2023-08-21T14:54:30;101319.84;;;18.54;90.38
13476;BME280;6810;63.824;20.288;2023-08-21T14:56:57;101280.34;;;18.31;90.62
13476;BME280;6810;63.824;20.288;2023-08-21T14:59:23;101316.81;;;18.47;90.91
13476;BME280;6810;63.824;20.288;2023-08-21T15:01:52;101183.78;;;17.70;90.55
13476;BME280;6810;63.824;20.288;2023-08-21T15:04:19;101318.16;;;18.42;91.24
13476;BME280;6810;63.824;20.288;2023-08-21T15:06:46;101319.75;;;18.44;91.33
13476;BME280;6810;63.824;20.288;2023-08-21T15:09:14;101321.84;;;18.41;91.15
13476;BME280;6810;63.824;20.288;2023-08-21T15:11:41;101296.78;;;18.28;91.59
13476;BME280;6810;63.824;20.288;2023-08-21T15:14:10;101273.72;;;18.13;91.77
13476;BME280;6810;63.824;20.288;2023-08-21T15:16:38;101299.72;;;18.25;92.04
13476;BME280;6810;63.824;20.288;2023-08-21T15:19:06;101316.03;;;18.34;92.13
13476;BME280;6810;63.824;20.288;2023-08-21T15:21:33;101322.44;;;18.33;91.91
13476;BME280;6810;63.824;20.288;2023-08-21T15:24:00;101306.00;;;18.25;92.28
13476;BME280;6810;63.824;20.288;2023-08-21T15:26:31;101252.63;;;17.96;92.02
13476;BME280;6810;63.824;20.288;2023-08-21T15:29:00;101223.97;;;17.73;92.33
13476;BME280;6810;63.824;20.288;2023-08-21T15:31:27;101257.31;;;17.94;92.39
13476;BME280;6810;63.824;20.288;2023-08-21T15:33:54;101292.63;;;18.13;92.39
13476;BME280;6810;63.824;20.288;2023-08-21T15:36:21;101261.22;;;17.90;92.56
13476;BME280;6810;63.824;20.288;2023-08-21T15:38:48;101285.13;;;18.05;92.58
13476;BME280;6810;63.824;20.288;2023-08-21T15:41:15;101205.34;;;17.59;92.49
13476;BME280;6810;63.824;20.288;2023-08-21T15:43:42;101230.44;;;17.70;91.96
13476;BME280;6810;63.824;20.288;2023-08-21T15:46:09;101161.75;;;17.30;91.75
13476;BME280;6810;63.824;20.288;2023-08-21T15:48:36;101230.69;;;17.67;92.46
13476;BME280;6810;63.824;20.288;2023-08-21T15:51:04;101228.88;;;17.68;92.16
13476;BME280;6810;63.824;20.288;2023-08-21T15:53:31;101227.88;;;17.69;92.44
13476;BME280;6810;63.824;20.288;2023-08-21T15:55:58;101296.44;;;18.10;93.10
13476;BME280;6810;63.824;20.288;2023-08-21T15:58:25;101299.25;;;18.09;92.95
13476;BME280;6810;63.824;20.288;2023-08-21T16:00:52;101283.69;;;18.01;92.84
13476;BME280;6810;63.824;20.288;2023-08-21T16:03:19;101290.41;;;18.07;92.88
13476;BME280;6810;63.824;20.288;2023-08-21T16:05:46;101280.97;;;18.01;92.78
13476;BME280;6810;63.824;20.288;2023-08-21T16:08:13;101294.84;;;18.08;93.63
13476;BME280;6810;63.824;20.288;2023-08-21T16:10:40;101285.88;;;18.07;93.52
13476;BME280;6810;63.824;20.288;2023-08-21T16:13:08;101281.47;;;18.06;93.29
13476;BME280;6810;63.824;20.288;2023-08-21T16:15:35;101287.72;;;18.07;93.16
13476;BME280;6810;63.824;20.288;2023-08-21T16:18:02;101292.88;;;18.10;93.32